sensor_id;sensor_type;location;lat;lon;timestamp;temperature;humidity
25914;DHT22;13718;50.922;5.346;2023-03-01T00:00:40;0.20;99.90
25914;DHT22;13718;50.922;5.346;2023-03-01T00:03:05;0.20;99.90
25914;DHT22;13718;50.922;5.346;2023-03-01T00:05:31;0.20;99.90
25914;DHT22;13718;50.922;5.346;2023-03-01T00:07:57;0.20;99.90
25914;DHT22;13718;50.922;5.346;2023-03-01T00:10:23;0.20;99.90
25914;DHT22;13718;50.922;5.346;2023-03-01T00:12:48;0.20;99.90
25914;DHT22;13718;50.922;5.346;2023-03-01T00:15:14;0.20;99.90
25914;DHT22;13718;50.922;5.346;2023-03-01T00:17:39;0.10;99.90
25914;DHT22;13718;50.922;5.346;2023-03-01T00:20:05;0.10;99.90
25914;DHT22;13718;50.922;5.346;2023-03-01T00:22:35;0.00;99.90
25914;DHT22;13718;50.922;5.346;2023-03-01T00:25:01;-0.10;99.90
25914;DHT22;13718;50.922;5.346;2023-03-01T00:27:27;-0.10;99.90
25914;DHT22;13718;50.922;5.346;2023-03-01T00:29:52;-0.10;99.90
25914;DHT22;13718;50.922;5.346;2023-03-01T00:32:18;-0.20;99.90
25914;DHT22;13718;50.922;5.346;2023-03-01T00:34:43;-0.20;99.90
25914;DHT22;13718;50.922;5.346;2023-03-01T00:37:22;-0.30;99.90
25914;DHT22;13718;50.922;5.346;2023-03-01T00:39:48;-0.30;99.90
25914;DHT22;13718;50.922;5.346;2023-03-01T00:42:13;-0.20;99.90
25914;DHT22;13718;50.922;5.346;2023-03-01T00:44:39;-0.10;99.90
25914;DHT22;13718;50.922;5.346;2023-03-01T00:47:04;-0.10;99.90
25914;DHT22;13718;50.922;5.346;2023-03-01T00:49:30;0.00;99.90
25914;DHT22;13718;50.922;5.346;2023-03-01T00:51:56;0.10;99.90
25914;DHT22;13718;50.922;5.346;2023-03-01T00:54:21;0.20;99.90
25914;DHT22;13718;50.922;5.346;2023-03-01T00:56:46;0.20;99.90
25914;DHT22;13718;50.922;5.346;2023-03-01T00:59:12;0.20;99.90
25914;DHT22;13718;50.922;5.346;2023-03-01T01:01:37;0.20;99.90
25914;DHT22;13718;50.922;5.346;2023-03-01T01:04:07;0.20;99.90
25914;DHT22;13718;50.922;5.346;2023-03-01T01:06:34;0.20;99.90
25914;DHT22;13718;50.922;5.346;2023-03-01T01:09:01;0.20;99.90
25914;DHT22;13718;50.922;5.346;2023-03-01T01:11:27;0.20;99.90
25914;DHT22;13718;50.922;5.346;2023-03-01T01:13:53;0.20;99.90
25914;DHT22;13718;50.922;5.346;2023-03-01T01:16:19;0.20;99.90
25914;DHT22;13718;50.922;5.346;2023-03-01T01:18:46;0.20;99.90
25914;DHT22;13718;50.922;5.346;2023-03-01T01:21:13;0.20;99.90
25914;DHT22;13718;50.922;5.346;2023-03-01T01:23:39;0.20;99.90
25914;DHT22;13718;50.922;5.346;2023-03-01T01:26:06;0.20;99.90
25914;DHT22;13718;50.922;5.346;2023-03-01T01:28:31;0.20;99.90
25914;DHT22;13718;50.922;5.346;2023-03-01T01:30:57;0.20;99.90
25914;DHT22;13718;50.922;5.346;2023-03-01T01:33:22;0.20;99.90
25914;DHT22;13718;50.922;5.346;2023-03-01T01:35:48;0.20;99.90
25914;DHT22;13718;50.922;5.346;2023-03-01T01:38:13;0.20;99.90
25914;DHT22;13718;50.922;5.346;2023-03-01T01:40:43;0.20;99.90
25914;DHT22;13718;50.922;5.346;2023-03-01T01:43:13;0.20;99.90
25914;DHT22;13718;50.922;5.346;2023-03-01T01:45:41;0.20;99.90
25914;DHT22;13718;50.922;5.346;2023-03-01T01:48:10;0.10;99.90
25914;DHT22;13718;50.922;5.346;2023-03-01T01:50:36;0.10;99.90
25914;DHT22;13718;50.922;5.346;2023-03-01T01:53:22;0.10;99.90
25914;DHT22;13718;50.922;5.346;2023-03-01T01:55:51;0.10;99.90
25914;DHT22;13718;50.922;5.346;2023-03-01T01:58:17;0.00;99.90
25914;DHT22;13718;50.922;5.346;2023-03-01T02:00:44;0.00;99.90
25914;DHT22;13718;50.922;5.346;2023-03-01T02:03:11;0.00;99.90
25914;DHT22;13718;50.922;5.346;2023-03-01T02:08:06;0.00;99.90
25914;DHT22;13718;50.922;5.346;2023-03-01T02:10:33;0.00;99.90
25914;DHT22;13718;50.922;5.346;2023-03-01T02:13:00;-0.10;99.90
25914;DHT22;13718;50.922;5.346;2023-03-01T02:15:25;-0.10;99.90
25914;DHT22;13718;50.922;5.346;2023-03-01T02:17:52;-0.10;99.90
25914;DHT22;13718;50.922;5.346;2023-03-01T02:22:46;-0.20;99.90
25914;DHT22;13718;50.922;5.346;2023-03-01T02:25:26;-0.20;99.90
25914;DHT22;13718;50.922;5.346;2023-03-01T02:30:24;-0.20;99.90
25914;DHT22;13718;50.922;5.346;2023-03-01T02:32:50;-0.20;99.90
25914;DHT22;13718;50.922;5.346;2023-03-01T02:35:16;-0.30;99.90
25914;DHT22;13718;50.922;5.346;2023-03-01T02:37:43;-0.30;99.90
25914;DHT22;13718;50.922;5.346;2023-03-01T02:40:11;-0.30;99.90
25914;DHT22;13718;50.922;5.346;2023-03-01T02:42:50;-0.20;99.90
25914;DHT22;13718;50.922;5.346;2023-03-01T02:45:16;-0.30;99.90
25914;DHT22;13718;50.922;5.346;2023-03-01T02:47:41;-0.30;99.90
25914;DHT22;13718;50.922;5.346;2023-03-01T02:50:25;-0.30;99.90
25914;DHT22;13718;50.922;5.346;2023-03-01T02:52:59;-0.30;99.90
25914;DHT22;13718;50.922;5.346;2023-03-01T02:55:26;-0.40;99.90
25914;DHT22;13718;50.922;5.346;2023-03-01T02:57:52;-0.40;99.90
25914;DHT22;13718;50.922;5.346;2023-03-01T03:00:23;-0.40;99.90
25914;DHT22;13718;50.922;5.346;2023-03-01T03:02:50;-0.40;99.90
25914;DHT22;13718;50.922;5.346;2023-03-01T03:05:17;-0.50;99.90
25914;DHT22;13718;50.922;5.346;2023-03-01T03:07:44;-0.50;99.90
25914;DHT22;13718;50.922;5.346;2023-03-01T03:10:15;-0.40;99.90
25914;DHT22;13718;50.922;5.346;2023-03-01T03:12:41;-0.50;99.90
25914;DHT22;13718;50.922;5.346;2023-03-01T03:15:07;-0.40;99.90
25914;DHT22;13718;50.922;5.346;2023-03-01T03:17:35;-0.50;99.90
25914;DHT22;13718;50.922;5.346;2023-03-01T03:20:01;-0.50;99.90
25914;DHT22;13718;50.922;5.346;2023-03-01T03:22:28;-0.50;99.90
25914;DHT22;13718;50.922;5.346;2023-03-01T03:24:54;-0.50;99.90
25914;DHT22;13718;50.922;5.346;2023-03-01T03:27:19;-0.40;99.90
25914;DHT22;13718;50.922;5.346;2023-03-01T03:29:44;-0.50;99.90
25914;DHT22;13718;50.922;5.346;2023-03-01T03:32:10;-0.60;99.90
25914;DHT22;13718;50.922;5.346;2023-03-01T03:34:35;-0.50;99.90
25914;DHT22;13718;50.922;5.346;2023-03-01T03:37:01;-0.50;99.90
25914;DHT22;13718;50.922;5.346;2023-03-01T03:39:26;-0.40;99.90
25914;DHT22;13718;50.922;5.346;2023-03-01T03:41:52;-0.50;99.90
25914;DHT22;13718;50.922;5.346;2023-03-01T03:44:20;-0.50;99.90
25914;DHT22;13718;50.922;5.346;2023-03-01T03:46:45;-0.60;99.90
25914;DHT22;13718;50.922;5.346;2023-03-01T03:49:11;-0.60;99.90
25914;DHT22;13718;50.922;5.346;2023-03-01T03:51:36;-0.70;99.90
25914;DHT22;13718;50.922;5.346;2023-03-01T03:54:02;-0.60;99.90
25914;DHT22;13718;50.922;5.346;2023-03-01T03:56:27;-0.70;99.90
25914;DHT22;13718;50.922;5.346;2023-03-01T03:58:52;-0.70;99.90
25914;DHT22;13718;50.922;5.346;2023-03-01T04:01:18;-0.80;99.90
25914;DHT22;13718;50.922;5.346;2023-03-01T04:03:44;-0.90;99.90
25914;DHT22;13718;50.922;5.346;2023-03-01T04:06:13;-0.90;99.90
25914;DHT22;13718;50.922;5.346;2023-03-01T04:08:38;-0.90;99.90
25914;DHT22;13718;50.922;5.346;2023-03-01T04:11:04;-1.00;99.90
25914;DHT22;13718;50.922;5.346;2023-03-01T04:13:48;-1.00;99.90
25914;DHT22;13718;50.922;5.346;2023-03-01T04:16:14;-1.00;99.90
25914;DHT22;13718;50.922;5.346;2023-03-01T04:18:40;-1.00;99.90
25914;DHT22;13718;50.922;5.346;2023-03-01T04:21:05;-0.90;99.90
25914;DHT22;13718;50.922;5.346;2023-03-01T04:23:31;-1.00;99.90
25914;DHT22;13718;50.922;5.346;2023-03-01T04:25:57;-0.90;99.90
25914;DHT22;13718;50.922;5.346;2023-03-01T04:28:23;-0.90;99.90
25914;DHT22;13718;50.922;5.346;2023-03-01T04:30:50;-0.90;99.90
25914;DHT22;13718;50.922;5.346;2023-03-01T04:33:15;-0.90;99.90
25914;DHT22;13718;50.922;5.346;2023-03-01T04:35:41;-0.90;99.90
25914;DHT22;13718;50.922;5.346;2023-03-01T04:38:06;-0.90;99.90
25914;DHT22;13718;50.922;5.346;2023-03-01T04:40:32;-0.90;99.90
25914;DHT22;13718;50.922;5.346;2023-03-01T04:42:58;-0.90;99.90
25914;DHT22;13718;50.922;5.346;2023-03-01T04:45:23;-0.90;99.90
25914;DHT22;13718;50.922;5.346;2023-03-01T04:47:49;-0.90;99.90
25914;DHT22;13718;50.922;5.346;2023-03-01T04:50:15;-1.00;99.90
25914;DHT22;13718;50.922;5.346;2023-03-01T04:52:42;-1.00;99.90
25914;DHT22;13718;50.922;5.346;2023-03-01T04:55:08;-1.00;99.90
25914;DHT22;13718;50.922;5.346;2023-03-01T04:57:34;-1.00;99.90
25914;DHT22;13718;50.922;5.346;2023-03-01T05:00:00;-1.00;99.90
25914;DHT22;13718;50.922;5.346;2023-03-01T05:02:25;-1.10;99.90
25914;DHT22;13718;50.922;5.346;2023-03-01T05:04:51;-1.00;99.90
25914;DHT22;13718;50.922;5.346;2023-03-01T05:07:17;-1.00;99.90
25914;DHT22;13718;50.922;5.346;2023-03-01T05:09:46;-0.90;99.90
25914;DHT22;13718;50.922;5.346;2023-03-01T05:12:12;-1.00;99.90
25914;DHT22;13718;50.922;5.346;2023-03-01T05:14:38;-0.90;99.90
25914;DHT22;13718;50.922;5.346;2023-03-01T05:17:04;-1.00;99.90
25914;DHT22;13718;50.922;5.346;2023-03-01T05:19:30;-1.00;99.90
25914;DHT22;13718;50.922;5.346;2023-03-01T05:21:56;-1.10;99.90
25914;DHT22;13718;50.922;5.346;2023-03-01T05:24:32;-1.10;99.90
25914;DHT22;13718;50.922;5.346;2023-03-01T05:26:58;-1.10;99.90
25914;DHT22;13718;50.922;5.346;2023-03-01T05:29:24;-1.10;99.90
25914;DHT22;13718;50.922;5.346;2023-03-01T05:31:54;-1.00;99.90
25914;DHT22;13718;50.922;5.346;2023-03-01T05:34:53;-1.10;99.90
25914;DHT22;13718;50.922;5.346;2023-03-01T05:37:12;-1.10;99.90
25914;DHT22;13718;50.922;5.346;2023-03-01T05:39:38;-1.10;99.90
25914;DHT22;13718;50.922;5.346;2023-03-01T05:42:04;-1.10;99.90
25914;DHT22;13718;50.922;5.346;2023-03-01T05:44:30;-1.20;99.90
25914;DHT22;13718;50.922;5.346;2023-03-01T05:46:56;-0.90;99.90
25914;DHT22;13718;50.922;5.346;2023-03-01T05:49:22;-1.00;99.90
25914;DHT22;13718;50.922;5.346;2023-03-01T05:51:50;-1.10;99.90
25914;DHT22;13718;50.922;5.346;2023-03-01T05:54:15;-1.10;99.90
25914;DHT22;13718;50.922;5.346;2023-03-01T05:56:41;-1.10;99.90
25914;DHT22;13718;50.922;5.346;2023-03-01T05:59:07;-1.10;99.90
25914;DHT22;13718;50.922;5.346;2023-03-01T06:01:33;-1.20;99.90
25914;DHT22;13718;50.922;5.346;2023-03-01T06:03:58;-1.20;99.90
25914;DHT22;13718;50.922;5.346;2023-03-01T06:06:24;-1.30;99.90
25914;DHT22;13718;50.922;5.346;2023-03-01T06:08:50;-1.30;99.90
25914;DHT22;13718;50.922;5.346;2023-03-01T06:11:15;-1.30;99.90
25914;DHT22;13718;50.922;5.346;2023-03-01T06:13:44;-1.30;99.90
25914;DHT22;13718;50.922;5.346;2023-03-01T06:16:10;-1.30;99.90
25914;DHT22;13718;50.922;5.346;2023-03-01T06:18:36;-1.30;99.90
25914;DHT22;13718;50.922;5.346;2023-03-01T06:21:02;-1.30;99.90
25914;DHT22;13718;50.922;5.346;2023-03-01T06:23:28;-1.30;99.90
25914;DHT22;13718;50.922;5.346;2023-03-01T06:25:53;-1.30;99.90
25914;DHT22;13718;50.922;5.346;2023-03-01T06:28:19;-1.30;99.90
25914;DHT22;13718;50.922;5.346;2023-03-01T06:30:44;-1.30;99.90
25914;DHT22;13718;50.922;5.346;2023-03-01T06:33:10;-1.30;99.90
25914;DHT22;13718;50.922;5.346;2023-03-01T06:35:35;-1.30;99.90
25914;DHT22;13718;50.922;5.346;2023-03-01T06:38:01;-1.40;99.90
25914;DHT22;13718;50.922;5.346;2023-03-01T06:40:27;-1.40;99.90
25914;DHT22;13718;50.922;5.346;2023-03-01T06:42:53;-1.40;99.90
25914;DHT22;13718;50.922;5.346;2023-03-01T06:45:19;-1.40;99.90
25914;DHT22;13718;50.922;5.346;2023-03-01T06:47:45;-1.40;99.90
25914;DHT22;13718;50.922;5.346;2023-03-01T06:50:11;-1.40;99.90
25914;DHT22;13718;50.922;5.346;2023-03-01T06:52:37;-1.30;99.90
25914;DHT22;13718;50.922;5.346;2023-03-01T06:55:02;-1.30;99.90
25914;DHT22;13718;50.922;5.346;2023-03-01T06:57:28;-0.90;99.90
25914;DHT22;13718;50.922;5.346;2023-03-01T06:59:54;-0.70;99.90
25914;DHT22;13718;50.922;5.346;2023-03-01T07:02:19;-0.50;99.90
25914;DHT22;13718;50.922;5.346;2023-03-01T07:04:45;-0.20;99.90
25914;DHT22;13718;50.922;5.346;2023-03-01T07:07:10;-0.10;99.90
25914;DHT22;13718;50.922;5.346;2023-03-01T07:09:36;0.00;99.90
25914;DHT22;13718;50.922;5.346;2023-03-01T07:12:01;0.00;99.90
25914;DHT22;13718;50.922;5.346;2023-03-01T07:14:27;0.50;99.90
25914;DHT22;13718;50.922;5.346;2023-03-01T07:16:53;0.90;99.90
25914;DHT22;13718;50.922;5.346;2023-03-01T07:19:19;1.30;99.90
25914;DHT22;13718;50.922;5.346;2023-03-01T07:21:45;1.80;99.90
25914;DHT22;13718;50.922;5.346;2023-03-01T07:24:10;2.50;99.90
25914;DHT22;13718;50.922;5.346;2023-03-01T07:26:36;3.10;99.90
25914;DHT22;13718;50.922;5.346;2023-03-01T07:29:02;3.60;99.90
25914;DHT22;13718;50.922;5.346;2023-03-01T07:31:28;3.90;99.90
25914;DHT22;13718;50.922;5.346;2023-03-01T07:33:56;4.40;99.90
25914;DHT22;13718;50.922;5.346;2023-03-01T07:36:22;4.90;99.90
25914;DHT22;13718;50.922;5.346;2023-03-01T07:38:48;5.40;99.90
25914;DHT22;13718;50.922;5.346;2023-03-01T07:41:13;5.80;99.90
25914;DHT22;13718;50.922;5.346;2023-03-01T07:43:39;5.80;99.90
25914;DHT22;13718;50.922;5.346;2023-03-01T07:46:05;5.90;99.90
25914;DHT22;13718;50.922;5.346;2023-03-01T07:48:31;6.20;99.90
25914;DHT22;13718;50.922;5.346;2023-03-01T07:51:00;6.60;99.90
25914;DHT22;13718;50.922;5.346;2023-03-01T07:53:26;7.00;99.90
25914;DHT22;13718;50.922;5.346;2023-03-01T07:56:05;7.40;99.60
25914;DHT22;13718;50.922;5.346;2023-03-01T07:58:30;7.80;99.50
25914;DHT22;13718;50.922;5.346;2023-03-01T08:00:56;8.00;97.90
25914;DHT22;13718;50.922;5.346;2023-03-01T08:03:21;8.40;96.70
25914;DHT22;13718;50.922;5.346;2023-03-01T08:05:47;8.90;96.10
25914;DHT22;13718;50.922;5.346;2023-03-01T08:08:12;9.30;94.30
25914;DHT22;13718;50.922;5.346;2023-03-01T08:10:38;9.50;93.60
25914;DHT22;13718;50.922;5.346;2023-03-01T08:13:03;9.60;93.30
25914;DHT22;13718;50.922;5.346;2023-03-01T08:15:29;10.00;92.40
25914;DHT22;13718;50.922;5.346;2023-03-01T08:17:54;9.90;91.50
25914;DHT22;13718;50.922;5.346;2023-03-01T08:20:20;9.90;91.50
25914;DHT22;13718;50.922;5.346;2023-03-01T08:22:46;10.10;91.30
25914;DHT22;13718;50.922;5.346;2023-03-01T08:25:11;10.40;90.80
25914;DHT22;13718;50.922;5.346;2023-03-01T08:27:37;10.80;90.00
25914;DHT22;13718;50.922;5.346;2023-03-01T08:30:02;10.80;89.00
25914;DHT22;13718;50.922;5.346;2023-03-01T08:32:28;10.30;89.40
25914;DHT22;13718;50.922;5.346;2023-03-01T08:34:53;10.80;90.00
25914;DHT22;13718;50.922;5.346;2023-03-01T08:37:19;11.10;88.40
25914;DHT22;13718;50.922;5.346;2023-03-01T08:39:44;11.50;86.00
25914;DHT22;13718;50.922;5.346;2023-03-01T08:42:10;10.50;86.20
25914;DHT22;13718;50.922;5.346;2023-03-01T08:44:35;8.80;89.00
25914;DHT22;13718;50.922;5.346;2023-03-01T08:47:01;7.40;91.70
25914;DHT22;13718;50.922;5.346;2023-03-01T08:49:27;6.30;93.60
25914;DHT22;13718;50.922;5.346;2023-03-01T08:51:53;5.20;95.30
25914;DHT22;13718;50.922;5.346;2023-03-01T08:54:20;4.80;96.30
25914;DHT22;13718;50.922;5.346;2023-03-01T08:56:46;4.50;97.50
25914;DHT22;13718;50.922;5.346;2023-03-01T08:59:12;4.20;98.10
25914;DHT22;13718;50.922;5.346;2023-03-01T09:01:38;4.60;98.00
25914;DHT22;13718;50.922;5.346;2023-03-01T09:04:04;4.30;98.40
25914;DHT22;13718;50.922;5.346;2023-03-01T09:06:30;4.20;99.00
25914;DHT22;13718;50.922;5.346;2023-03-01T09:08:55;3.90;99.60
25914;DHT22;13718;50.922;5.346;2023-03-01T09:11:21;3.70;99.90
25914;DHT22;13718;50.922;5.346;2023-03-01T09:13:48;3.60;99.90
25914;DHT22;13718;50.922;5.346;2023-03-01T09:16:14;3.50;99.90
25914;DHT22;13718;50.922;5.346;2023-03-01T09:18:40;3.60;99.90
25914;DHT22;13718;50.922;5.346;2023-03-01T09:21:07;3.60;99.90
25914;DHT22;13718;50.922;5.346;2023-03-01T09:23:42;3.50;99.90
25914;DHT22;13718;50.922;5.346;2023-03-01T09:26:09;3.50;99.90
25914;DHT22;13718;50.922;5.346;2023-03-01T09:28:35;3.70;99.90
25914;DHT22;13718;50.922;5.346;2023-03-01T09:31:01;4.20;99.90
25914;DHT22;13718;50.922;5.346;2023-03-01T09:33:27;4.30;99.90
25914;DHT22;13718;50.922;5.346;2023-03-01T09:36:00;4.30;99.90
25914;DHT22;13718;50.922;5.346;2023-03-01T09:38:26;4.10;99.90
25914;DHT22;13718;50.922;5.346;2023-03-01T09:40:51;4.00;99.90
25914;DHT22;13718;50.922;5.346;2023-03-01T09:43:22;4.40;99.90
25914;DHT22;13718;50.922;5.346;2023-03-01T09:45:50;4.40;99.90
25914;DHT22;13718;50.922;5.346;2023-03-01T09:48:19;4.40;99.90
25914;DHT22;13718;50.922;5.346;2023-03-01T09:50:47;4.20;99.90
25914;DHT22;13718;50.922;5.346;2023-03-01T10:00:49;4.60;99.90
25914;DHT22;13718;50.922;5.346;2023-03-01T10:03:21;4.40;99.90
25914;DHT22;13718;50.922;5.346;2023-03-01T10:08:27;4.10;99.90
25914;DHT22;13718;50.922;5.346;2023-03-01T10:10:56;4.50;99.90
25914;DHT22;13718;50.922;5.346;2023-03-01T10:16:37;4.60;99.90
25914;DHT22;13718;50.922;5.346;2023-03-01T10:19:05;4.70;99.90
25914;DHT22;13718;50.922;5.346;2023-03-01T10:21:31;4.60;99.90
25914;DHT22;13718;50.922;5.346;2023-03-01T10:24:08;4.70;99.90
25914;DHT22;13718;50.922;5.346;2023-03-01T10:29:04;5.00;99.40
25914;DHT22;13718;50.922;5.346;2023-03-01T10:31:49;5.00;99.50
25914;DHT22;13718;50.922;5.346;2023-03-01T10:34:17;4.90;99.70
25914;DHT22;13718;50.922;5.346;2023-03-01T10:36:44;4.90;98.80
25914;DHT22;13718;50.922;5.346;2023-03-01T10:39:23;4.80;99.40
25914;DHT22;13718;50.922;5.346;2023-03-01T10:41:52;4.60;99.90
25914;DHT22;13718;50.922;5.346;2023-03-01T10:44:34;5.00;99.10
25914;DHT22;13718;50.922;5.346;2023-03-01T10:47:00;5.10;98.90
25914;DHT22;13718;50.922;5.346;2023-03-01T10:49:26;4.90;98.90
25914;DHT22;13718;50.922;5.346;2023-03-01T10:51:52;5.10;98.60
25914;DHT22;13718;50.922;5.346;2023-03-01T10:54:28;5.10;98.60
25914;DHT22;13718;50.922;5.346;2023-03-01T10:56:55;5.20;98.80
25914;DHT22;13718;50.922;5.346;2023-03-01T10:59:26;5.50;97.90
25914;DHT22;13718;50.922;5.346;2023-03-01T11:02:03;5.30;98.20
25914;DHT22;13718;50.922;5.346;2023-03-01T11:04:29;5.40;98.00
25914;DHT22;13718;50.922;5.346;2023-03-01T11:06:58;5.50;97.80
25914;DHT22;13718;50.922;5.346;2023-03-01T11:09:24;5.60;97.50
25914;DHT22;13718;50.922;5.346;2023-03-01T11:11:54;5.70;97.30
25914;DHT22;13718;50.922;5.346;2023-03-01T11:14:23;5.70;97.20
25914;DHT22;13718;50.922;5.346;2023-03-01T11:17:02;5.80;97.10
25914;DHT22;13718;50.922;5.346;2023-03-01T11:19:28;5.60;97.40
25914;DHT22;13718;50.922;5.346;2023-03-01T11:24:19;5.90;96.40
25914;DHT22;13718;50.922;5.346;2023-03-01T11:26:50;5.90;96.20
25914;DHT22;13718;50.922;5.346;2023-03-01T11:29:27;6.00;96.80
25914;DHT22;13718;50.922;5.346;2023-03-01T11:31:54;5.90;96.90
25914;DHT22;13718;50.922;5.346;2023-03-01T11:34:24;6.10;96.40
25914;DHT22;13718;50.922;5.346;2023-03-01T11:36:58;6.20;96.00
25914;DHT22;13718;50.922;5.346;2023-03-01T11:39:29;6.20;95.80
25914;DHT22;13718;50.922;5.346;2023-03-01T11:42:06;6.10;95.90
25914;DHT22;13718;50.922;5.346;2023-03-01T11:44:35;5.70;96.50
25914;DHT22;13718;50.922;5.346;2023-03-01T11:49:55;5.80;96.20
25914;DHT22;13718;50.922;5.346;2023-03-01T12:00:22;6.20;96.60
25914;DHT22;13718;50.922;5.346;2023-03-01T12:05:29;5.90;96.50
25914;DHT22;13718;50.922;5.346;2023-03-01T12:08:07;6.20;95.20
25914;DHT22;13718;50.922;5.346;2023-03-01T12:10:44;6.30;95.70
25914;DHT22;13718;50.922;5.346;2023-03-01T12:13:35;6.30;95.70
25914;DHT22;13718;50.922;5.346;2023-03-01T12:19:01;6.10;95.50
25914;DHT22;13718;50.922;5.346;2023-03-01T12:24:35;6.40;95.10
25914;DHT22;13718;50.922;5.346;2023-03-01T12:42:24;6.70;94.20
25914;DHT22;13718;50.922;5.346;2023-03-01T12:50:20;7.10;93.40
25914;DHT22;13718;50.922;5.346;2023-03-01T12:52:56;6.80;93.80
25914;DHT22;13718;50.922;5.346;2023-03-01T13:00:30;6.70;93.40
25914;DHT22;13718;50.922;5.346;2023-03-01T13:03:04;6.70;93.20
25914;DHT22;13718;50.922;5.346;2023-03-01T13:13:22;7.00;93.30
25914;DHT22;13718;50.922;5.346;2023-03-01T13:15:49;6.80;93.80
25914;DHT22;13718;50.922;5.346;2023-03-01T13:25:32;6.70;93.90
25914;DHT22;13718;50.922;5.346;2023-03-01T13:30:42;7.30;92.90
25914;DHT22;13718;50.922;5.346;2023-03-01T13:33:42;7.40;92.00
25914;DHT22;13718;50.922;5.346;2023-03-01T13:36:01;6.90;92.30
25914;DHT22;13718;50.922;5.346;2023-03-01T13:38:37;6.70;93.10
25914;DHT22;13718;50.922;5.346;2023-03-01T13:41:03;6.70;93.20
25914;DHT22;13718;50.922;5.346;2023-03-01T13:45:58;6.70;93.50
25914;DHT22;13718;50.922;5.346;2023-03-01T13:48:28;6.80;93.60
25914;DHT22;13718;50.922;5.346;2023-03-01T13:51:00;6.90;93.60
25914;DHT22;13718;50.922;5.346;2023-03-01T13:53:29;6.80;93.50
25914;DHT22;13718;50.922;5.346;2023-03-01T13:55:57;6.70;93.80
25914;DHT22;13718;50.922;5.346;2023-03-01T13:58:25;6.70;94.20
25914;DHT22;13718;50.922;5.346;2023-03-01T14:03:45;7.00;94.00
25914;DHT22;13718;50.922;5.346;2023-03-01T14:06:19;7.20;93.50
25914;DHT22;13718;50.922;5.346;2023-03-01T14:08:45;7.10;93.60
25914;DHT22;13718;50.922;5.346;2023-03-01T14:14:02;6.90;93.30
25914;DHT22;13718;50.922;5.346;2023-03-01T14:19:29;7.30;92.90
25914;DHT22;13718;50.922;5.346;2023-03-01T14:22:38;7.50;92.70
25914;DHT22;13718;50.922;5.346;2023-03-01T14:24:49;7.70;91.50
25914;DHT22;13718;50.922;5.346;2023-03-01T14:27:15;7.60;91.30
25914;DHT22;13718;50.922;5.346;2023-03-01T14:29:41;7.60;91.20
25914;DHT22;13718;50.922;5.346;2023-03-01T14:32:08;7.70;91.00
25914;DHT22;13718;50.922;5.346;2023-03-01T14:34:33;7.50;90.80
25914;DHT22;13718;50.922;5.346;2023-03-01T14:37:09;7.20;91.50
25914;DHT22;13718;50.922;5.346;2023-03-01T14:39:35;7.00;92.00
25914;DHT22;13718;50.922;5.346;2023-03-01T14:42:00;7.10;91.90
25914;DHT22;13718;50.922;5.346;2023-03-01T14:44:26;7.10;92.30
25914;DHT22;13718;50.922;5.346;2023-03-01T14:46:54;7.30;91.80
25914;DHT22;13718;50.922;5.346;2023-03-01T14:49:22;7.60;91.10
25914;DHT22;13718;50.922;5.346;2023-03-01T14:51:56;7.60;91.20
25914;DHT22;13718;50.922;5.346;2023-03-01T14:56:51;7.10;92.20
25914;DHT22;13718;50.922;5.346;2023-03-01T14:59:21;7.00;91.80
25914;DHT22;13718;50.922;5.346;2023-03-01T15:01:47;7.00;91.90
25914;DHT22;13718;50.922;5.346;2023-03-01T15:04:13;7.50;91.00
25914;DHT22;13718;50.922;5.346;2023-03-01T15:06:39;7.70;90.50
25914;DHT22;13718;50.922;5.346;2023-03-01T15:09:05;7.70;90.60
25914;DHT22;13718;50.922;5.346;2023-03-01T15:11:32;7.90;90.40
25914;DHT22;13718;50.922;5.346;2023-03-01T15:13:58;8.00;90.30
25914;DHT22;13718;50.922;5.346;2023-03-01T15:16:26;8.10;90.70
25914;DHT22;13718;50.922;5.346;2023-03-01T15:18:53;7.90;91.00
25914;DHT22;13718;50.922;5.346;2023-03-01T15:21:24;7.60;91.40
25914;DHT22;13718;50.922;5.346;2023-03-01T15:23:51;7.50;92.00
25914;DHT22;13718;50.922;5.346;2023-03-01T15:26:21;7.50;92.10
25914;DHT22;13718;50.922;5.346;2023-03-01T15:28:51;7.90;91.50
25914;DHT22;13718;50.922;5.346;2023-03-01T15:31:19;8.00;91.20
25914;DHT22;13718;50.922;5.346;2023-03-01T15:33:46;7.60;91.50
25914;DHT22;13718;50.922;5.346;2023-03-01T15:41:53;7.10;92.40
25914;DHT22;13718;50.922;5.346;2023-03-01T15:44:27;7.20;92.30
25914;DHT22;13718;50.922;5.346;2023-03-01T15:46:53;7.40;92.20
25914;DHT22;13718;50.922;5.346;2023-03-01T15:52:03;7.40;91.90
25914;DHT22;13718;50.922;5.346;2023-03-01T15:54:28;7.50;91.50
25914;DHT22;13718;50.922;5.346;2023-03-01T15:56:54;7.20;90.80
25914;DHT22;13718;50.922;5.346;2023-03-01T15:59:20;7.30;90.60
25914;DHT22;13718;50.922;5.346;2023-03-01T16:01:47;7.20;90.90
25914;DHT22;13718;50.922;5.346;2023-03-01T16:04:14;7.40;90.60
25914;DHT22;13718;50.922;5.346;2023-03-01T16:06:46;7.50;90.70
25914;DHT22;13718;50.922;5.346;2023-03-01T16:09:12;7.60;90.10
25914;DHT22;13718;50.922;5.346;2023-03-01T16:11:37;7.40;90.40
25914;DHT22;13718;50.922;5.346;2023-03-01T16:14:05;7.10;90.50
25914;DHT22;13718;50.922;5.346;2023-03-01T16:16:30;6.90;90.90
25914;DHT22;13718;50.922;5.346;2023-03-01T16:18:56;7.40;90.80
25914;DHT22;13718;50.922;5.346;2023-03-01T16:21:22;7.20;90.80
25914;DHT22;13718;50.922;5.346;2023-03-01T16:23:48;6.90;91.20
25914;DHT22;13718;50.922;5.346;2023-03-01T16:26:13;6.80;91.30
25914;DHT22;13718;50.922;5.346;2023-03-01T16:28:40;6.90;91.30
25914;DHT22;13718;50.922;5.346;2023-03-01T16:31:05;7.20;90.80
25914;DHT22;13718;50.922;5.346;2023-03-01T16:33:31;7.20;90.70
25914;DHT22;13718;50.922;5.346;2023-03-01T16:35:57;7.30;90.80
25914;DHT22;13718;50.922;5.346;2023-03-01T16:38:25;7.30;90.80
25914;DHT22;13718;50.922;5.346;2023-03-01T16:40:51;7.50;90.80
25914;DHT22;13718;50.922;5.346;2023-03-01T16:43:16;7.50;90.80
25914;DHT22;13718;50.922;5.346;2023-03-01T16:45:42;7.60;90.90
25914;DHT22;13718;50.922;5.346;2023-03-01T16:48:10;7.70;90.60
25914;DHT22;13718;50.922;5.346;2023-03-01T16:50:35;7.50;90.90
25914;DHT22;13718;50.922;5.346;2023-03-01T16:53:01;7.30;91.10
25914;DHT22;13718;50.922;5.346;2023-03-01T16:55:27;6.80;91.60
25914;DHT22;13718;50.922;5.346;2023-03-01T16:57:53;6.60;92.10
25914;DHT22;13718;50.922;5.346;2023-03-01T17:00:18;6.40;92.50
25914;DHT22;13718;50.922;5.346;2023-03-01T17:02:44;6.50;92.60
25914;DHT22;13718;50.922;5.346;2023-03-01T17:05:10;6.40;92.50
25914;DHT22;13718;50.922;5.346;2023-03-01T17:07:38;6.40;92.70
25914;DHT22;13718;50.922;5.346;2023-03-01T17:10:05;6.50;92.60
25914;DHT22;13718;50.922;5.346;2023-03-01T17:12:33;6.30;92.80
25914;DHT22;13718;50.922;5.346;2023-03-01T17:14:59;6.20;93.00
25914;DHT22;13718;50.922;5.346;2023-03-01T17:17:24;6.20;92.90
25914;DHT22;13718;50.922;5.346;2023-03-01T17:19:50;6.40;92.90
25914;DHT22;13718;50.922;5.346;2023-03-01T17:22:15;6.50;92.80
25914;DHT22;13718;50.922;5.346;2023-03-01T17:24:42;6.70;92.40
25914;DHT22;13718;50.922;5.346;2023-03-01T17:27:08;6.60;92.40
25914;DHT22;13718;50.922;5.346;2023-03-01T17:29:34;6.80;92.30
25914;DHT22;13718;50.922;5.346;2023-03-01T17:31:59;6.80;92.30